sensor_id;sensor_type;location;lat;lon;timestamp;P1;durP1;ratioP1;P2;durP2;ratioP2
58950;SDS011;44730;53.158;6.398;2022-08-21T00:01:27;4.68;;;3.55;;
58950;SDS011;44730;53.158;6.398;2022-08-21T00:03:54;6.25;;;3.92;;
58950;SDS011;44730;53.158;6.398;2022-08-21T00:06:21;6.20;;;3.67;;
58950;SDS011;44730;53.158;6.398;2022-08-21T00:08:48;5.93;;;3.90;;
58950;SDS011;44730;53.158;6.398;2022-08-21T00:11:15;4.93;;;3.60;;
58950;SDS011;44730;53.158;6.398;2022-08-21T00:13:41;5.55;;;4.10;;
58950;SDS011;44730;53.158;6.398;2022-08-21T00:16:07;6.40;;;3.95;;
58950;SDS011;44730;53.158;6.398;2022-08-21T00:18:36;5.88;;;3.78;;
58950;SDS011;44730;53.158;6.398;2022-08-21T00:21:02;5.93;;;4.22;;
58950;SDS011;44730;53.158;6.398;2022-08-21T00:23:28;5.57;;;3.75;;
58950;SDS011;44730;53.158;6.398;2022-08-21T00:25:54;6.63;;;3.75;;
58950;SDS011;44730;53.158;6.398;2022-08-21T00:28:20;8.63;;;3.78;;
58950;SDS011;44730;53.158;6.398;2022-08-21T00:30:45;5.50;;;3.95;;
58950;SDS011;44730;53.158;6.398;2022-08-21T00:33:11;5.25;;;3.53;;
58950;SDS011;44730;53.158;6.398;2022-08-21T00:35:39;6.75;;;3.90;;
58950;SDS011;44730;53.158;6.398;2022-08-21T00:38:07;5.18;;;4.07;;
58950;SDS011;44730;53.158;6.398;2022-08-21T00:40:36;8.10;;;4.00;;
58950;SDS011;44730;53.158;6.398;2022-08-21T00:43:05;8.85;;;4.00;;
58950;SDS011;44730;53.158;6.398;2022-08-21T00:45:33;6.63;;;4.15;;
58950;SDS011;44730;53.158;6.398;2022-08-21T00:47:59;5.40;;;3.92;;
58950;SDS011;44730;53.158;6.398;2022-08-21T00:50:26;5.05;;;4.00;;
58950;SDS011;44730;53.158;6.398;2022-08-21T00:52:56;6.28;;;3.88;;
58950;SDS011;44730;53.158;6.398;2022-08-21T00:55:22;6.53;;;4.47;;
58950;SDS011;44730;53.158;6.398;2022-08-21T00:57:49;6.32;;;4.57;;
58950;SDS011;44730;53.158;6.398;2022-08-21T01:00:21;8.55;;;5.10;;
58950;SDS011;44730;53.158;6.398;2022-08-21T01:02:56;7.63;;;4.70;;
58950;SDS011;44730;53.158;6.398;2022-08-21T01:05:23;7.70;;;4.65;;
58950;SDS011;44730;53.158;6.398;2022-08-21T01:07:49;5.68;;;4.72;;
58950;SDS011;44730;53.158;6.398;2022-08-21T01:10:16;9.25;;;4.70;;
58950;SDS011;44730;53.158;6.398;2022-08-21T01:12:42;9.75;;;5.22;;
58950;SDS011;44730;53.158;6.398;2022-08-21T01:15:09;9.00;;;5.30;;
58950;SDS011;44730;53.158;6.398;2022-08-21T01:17:35;6.72;;;5.28;;
58950;SDS011;44730;53.158;6.398;2022-08-21T01:20:04;9.50;;;5.50;;
58950;SDS011;44730;53.158;6.398;2022-08-21T01:22:31;7.95;;;5.28;;
58950;SDS011;44730;53.158;6.398;2022-08-21T01:24:57;9.13;;;5.30;;
58950;SDS011;44730;53.158;6.398;2022-08-21T01:27:23;7.10;;;4.72;;
58950;SDS011;44730;53.158;6.398;2022-08-21T01:30:00;8.05;;;5.82;;
58950;SDS011;44730;53.158;6.398;2022-08-21T01:32:32;7.13;;;4.80;;
58950;SDS011;44730;53.158;6.398;2022-08-21T01:34:59;10.55;;;5.50;;
58950;SDS011;44730;53.158;6.398;2022-08-21T01:37:24;9.68;;;5.20;;
58950;SDS011;44730;53.158;6.398;2022-08-21T01:39:50;10.32;;;5.40;;
58950;SDS011;44730;53.158;6.398;2022-08-21T01:42:16;5.55;;;4.78;;
58950;SDS011;44730;53.158;6.398;2022-08-21T01:44:42;8.15;;;5.30;;
58950;SDS011;44730;53.158;6.398;2022-08-21T01:47:09;8.43;;;5.18;;
58950;SDS011;44730;53.158;6.398;2022-08-21T01:49:37;8.20;;;4.63;;
58950;SDS011;44730;53.158;6.398;2022-08-21T01:52:03;8.65;;;5.60;;
58950;SDS011;44730;53.158;6.398;2022-08-21T01:54:30;8.15;;;5.10;;
58950;SDS011;44730;53.158;6.398;2022-08-21T01:56:55;6.82;;;5.07;;
58950;SDS011;44730;53.158;6.398;2022-08-21T01:59:22;7.25;;;4.70;;
58950;SDS011;44730;53.158;6.398;2022-08-21T02:01:48;6.80;;;4.90;;
58950;SDS011;44730;53.158;6.398;2022-08-21T02:04:15;8.38;;;5.55;;
58950;SDS011;44730;53.158;6.398;2022-08-21T02:06:41;6.93;;;4.97;;
58950;SDS011;44730;53.158;6.398;2022-08-21T02:09:08;7.93;;;5.25;;
58950;SDS011;44730;53.158;6.398;2022-08-21T02:11:34;8.63;;;5.20;;
58950;SDS011;44730;53.158;6.398;2022-08-21T02:14:01;8.40;;;5.78;;
58950;SDS011;44730;53.158;6.398;2022-08-21T02:16:27;8.35;;;5.90;;
58950;SDS011;44730;53.158;6.398;2022-08-21T02:18:53;7.50;;;5.70;;
58950;SDS011;44730;53.158;6.398;2022-08-21T02:21:19;9.43;;;6.40;;
58950;SDS011;44730;53.158;6.398;2022-08-21T02:23:44;10.55;;;6.00;;
58950;SDS011;44730;53.158;6.398;2022-08-21T02:26:13;8.13;;;5.68;;
58950;SDS011;44730;53.158;6.398;2022-08-21T02:28:38;6.85;;;5.35;;
58950;SDS011;44730;53.158;6.398;2022-08-21T02:31:05;7.78;;;6.07;;
58950;SDS011;44730;53.158;6.398;2022-08-21T02:33:31;8.88;;;5.93;;
58950;SDS011;44730;53.158;6.398;2022-08-21T02:35:58;6.43;;;5.72;;
58950;SDS011;44730;53.158;6.398;2022-08-21T02:38:25;9.52;;;6.38;;
58950;SDS011;44730;53.158;6.398;2022-08-21T02:40:53;12.13;;;6.95;;
58950;SDS011;44730;53.158;6.398;2022-08-21T02:43:20;9.85;;;6.13;;
58950;SDS011;44730;53.158;6.398;2022-08-21T02:45:48;11.45;;;7.53;;
58950;SDS011;44730;53.158;6.398;2022-08-21T02:48:15;10.15;;;6.00;;
58950;SDS011;44730;53.158;6.398;2022-08-21T02:50:48;10.82;;;6.63;;
58950;SDS011;44730;53.158;6.398;2022-08-21T02:55:45;10.32;;;6.68;;
58950;SDS011;44730;53.158;6.398;2022-08-21T02:58:13;9.52;;;6.47;;
58950;SDS011;44730;53.158;6.398;2022-08-21T03:00:42;10.32;;;7.05;;
58950;SDS011;44730;53.158;6.398;2022-08-21T03:03:08;9.55;;;6.50;;
58950;SDS011;44730;53.158;6.398;2022-08-21T03:05:35;10.20;;;6.50;;
58950;SDS011;44730;53.158;6.398;2022-08-21T03:08:03;9.63;;;6.20;;
58950;SDS011;44730;53.158;6.398;2022-08-21T03:10:34;9.13;;;6.38;;
58950;SDS011;44730;53.158;6.398;2022-08-21T03:13:01;9.73;;;6.45;;
58950;SDS011;44730;53.158;6.398;2022-08-21T03:15:28;10.30;;;6.47;;
58950;SDS011;44730;53.158;6.398;2022-08-21T03:17:54;11.27;;;6.40;;
58950;SDS011;44730;53.158;6.398;2022-08-21T03:20:21;8.10;;;6.28;;
58950;SDS011;44730;53.158;6.398;2022-08-21T03:22:49;10.10;;;6.13;;
58950;SDS011;44730;53.158;6.398;2022-08-21T03:25:15;8.43;;;6.38;;
58950;SDS011;44730;53.158;6.398;2022-08-21T03:27:43;10.20;;;6.68;;
58950;SDS011;44730;53.158;6.398;2022-08-21T03:30:09;8.82;;;5.57;;
58950;SDS011;44730;53.158;6.398;2022-08-21T03:32:36;11.25;;;5.90;;
58950;SDS011;44730;53.158;6.398;2022-08-21T03:35:02;9.70;;;6.22;;
58950;SDS011;44730;53.158;6.398;2022-08-21T03:37:29;10.88;;;6.30;;
58950;SDS011;44730;53.158;6.398;2022-08-21T03:39:55;9.07;;;6.20;;
58950;SDS011;44730;53.158;6.398;2022-08-21T03:42:21;12.73;;;6.28;;
58950;SDS011;44730;53.158;6.398;2022-08-21T03:44:47;10.15;;;6.25;;
58950;SDS011;44730;53.158;6.398;2022-08-21T03:47:13;10.55;;;6.82;;
58950;SDS011;44730;53.158;6.398;2022-08-21T03:49:39;10.77;;;6.07;;
58950;SDS011;44730;53.158;6.398;2022-08-21T03:52:05;8.32;;;6.03;;
58950;SDS011;44730;53.158;6.398;2022-08-21T03:54:31;9.23;;;6.13;;
58950;SDS011;44730;53.158;6.398;2022-08-21T03:56:57;11.18;;;5.90;;
58950;SDS011;44730;53.158;6.398;2022-08-21T03:59:23;10.02;;;6.00;;
58950;SDS011;44730;53.158;6.398;2022-08-21T04:01:57;10.88;;;5.90;;
58950;SDS011;44730;53.158;6.398;2022-08-21T04:04:25;8.95;;;5.53;;
58950;SDS011;44730;53.158;6.398;2022-08-21T04:06:52;10.73;;;6.35;;
58950;SDS011;44730;53.158;6.398;2022-08-21T04:09:18;8.80;;;5.72;;
58950;SDS011;44730;53.158;6.398;2022-08-21T04:11:44;11.30;;;6.07;;
58950;SDS011;44730;53.158;6.398;2022-08-21T04:14:12;11.90;;;5.95;;
58950;SDS011;44730;53.158;6.398;2022-08-21T04:16:40;7.95;;;6.00;;
58950;SDS011;44730;53.158;6.398;2022-08-21T04:19:07;9.73;;;6.15;;
58950;SDS011;44730;53.158;6.398;2022-08-21T04:21:33;7.90;;;5.78;;
58950;SDS011;44730;53.158;6.398;2022-08-21T04:24:01;10.00;;;5.90;;
58950;SDS011;44730;53.158;6.398;2022-08-21T04:26:27;10.05;;;5.72;;
58950;SDS011;44730;53.158;6.398;2022-08-21T04:28:53;8.90;;;5.47;;
58950;SDS011;44730;53.158;6.398;2022-08-21T04:31:22;8.48;;;5.57;;
58950;SDS011;44730;53.158;6.398;2022-08-21T04:33:49;8.90;;;5.78;;
58950;SDS011;44730;53.158;6.398;2022-08-21T04:36:15;10.48;;;6.05;;
58950;SDS011;44730;53.158;6.398;2022-08-21T04:38:42;9.93;;;5.93;;
58950;SDS011;44730;53.158;6.398;2022-08-21T04:41:07;9.25;;;5.80;;
58950;SDS011;44730;53.158;6.398;2022-08-21T04:43:33;8.55;;;5.68;;
58950;SDS011;44730;53.158;6.398;2022-08-21T04:45:59;8.50;;;5.60;;
58950;SDS011;44730;53.158;6.398;2022-08-21T04:48:25;8.23;;;5.53;;
58950;SDS011;44730;53.158;6.398;2022-08-21T04:50:53;8.68;;;5.60;;
58950;SDS011;44730;53.158;6.398;2022-08-21T04:53:24;9.60;;;6.03;;
58950;SDS011;44730;53.158;6.398;2022-08-21T04:56:02;8.93;;;5.53;;
58950;SDS011;44730;53.158;6.398;2022-08-21T04:58:34;8.15;;;5.35;;
58950;SDS011;44730;53.158;6.398;2022-08-21T05:01:03;8.60;;;5.63;;
58950;SDS011;44730;53.158;6.398;2022-08-21T05:03:32;8.75;;;5.63;;
58950;SDS011;44730;53.158;6.398;2022-08-21T05:05:59;9.38;;;5.90;;
58950;SDS011;44730;53.158;6.398;2022-08-21T05:08:26;10.55;;;5.95;;
58950;SDS011;44730;53.158;6.398;2022-08-21T05:10:53;7.70;;;5.22;;
58950;SDS011;44730;53.158;6.398;2022-08-21T05:13:19;9.20;;;6.13;;
58950;SDS011;44730;53.158;6.398;2022-08-21T05:15:45;10.13;;;5.35;;
58950;SDS011;44730;53.158;6.398;2022-08-21T05:18:12;8.07;;;5.40;;
58950;SDS011;44730;53.158;6.398;2022-08-21T05:20:38;11.57;;;5.72;;
58950;SDS011;44730;53.158;6.398;2022-08-21T05:23:09;13.50;;;6.03;;
58950;SDS011;44730;53.158;6.398;2022-08-21T05:25:36;10.77;;;5.50;;
58950;SDS011;44730;53.158;6.398;2022-08-21T05:28:03;11.38;;;6.25;;
58950;SDS011;44730;53.158;6.398;2022-08-21T05:30:29;8.70;;;5.45;;
58950;SDS011;44730;53.158;6.398;2022-08-21T05:32:56;7.25;;;5.22;;
58950;SDS011;44730;53.158;6.398;2022-08-21T05:35:27;9.15;;;5.97;;
58950;SDS011;44730;53.158;6.398;2022-08-21T05:37:55;9.30;;;5.60;;
58950;SDS011;44730;53.158;6.398;2022-08-21T05:40:21;11.23;;;5.90;;
58950;SDS011;44730;53.158;6.398;2022-08-21T05:42:48;9.95;;;6.07;;
58950;SDS011;44730;53.158;6.398;2022-08-21T05:45:15;9.73;;;5.38;;
58950;SDS011;44730;53.158;6.398;2022-08-21T05:47:42;7.38;;;5.30;;
58950;SDS011;44730;53.158;6.398;2022-08-21T05:50:08;8.35;;;5.18;;
58950;SDS011;44730;53.158;6.398;2022-08-21T05:52:34;8.35;;;5.53;;
58950;SDS011;44730;53.158;6.398;2022-08-21T05:55:00;9.02;;;5.60;;
58950;SDS011;44730;53.158;6.398;2022-08-21T05:57:26;9.93;;;5.03;;
58950;SDS011;44730;53.158;6.398;2022-08-21T05:59:53;9.98;;;5.25;;
58950;SDS011;44730;53.158;6.398;2022-08-21T06:02:19;7.65;;;4.70;;
58950;SDS011;44730;53.158;6.398;2022-08-21T06:04:45;7.90;;;5.18;;
58950;SDS011;44730;53.158;6.398;2022-08-21T06:07:12;7.50;;;5.25;;
58950;SDS011;44730;53.158;6.398;2022-08-21T06:09:38;6.30;;;4.28;;
58950;SDS011;44730;53.158;6.398;2022-08-21T06:12:05;8.93;;;5.03;;
58950;SDS011;44730;53.158;6.398;2022-08-21T06:14:31;8.15;;;4.97;;
58950;SDS011;44730;53.158;6.398;2022-08-21T06:17:04;7.88;;;4.68;;
58950;SDS011;44730;53.158;6.398;2022-08-21T06:19:30;9.33;;;4.77;;
58950;SDS011;44730;53.158;6.398;2022-08-21T06:21:56;9.15;;;4.30;;
58950;SDS011;44730;53.158;6.398;2022-08-21T06:24:22;9.75;;;4.78;;
58950;SDS011;44730;53.158;6.398;2022-08-21T06:26:48;7.03;;;4.60;;
58950;SDS011;44730;53.158;6.398;2022-08-21T06:29:14;5.80;;;4.10;;
58950;SDS011;44730;53.158;6.398;2022-08-21T06:31:43;6.05;;;3.88;;
58950;SDS011;44730;53.158;6.398;2022-08-21T06:34:09;6.75;;;4.22;;
58950;SDS011;44730;53.158;6.398;2022-08-21T06:36:35;5.65;;;4.55;;
58950;SDS011;44730;53.158;6.398;2022-08-21T06:39:00;5.90;;;4.55;;
58950;SDS011;44730;53.158;6.398;2022-08-21T06:41:27;6.63;;;4.25;;
58950;SDS011;44730;53.158;6.398;2022-08-21T06:43:53;5.80;;;3.97;;
58950;SDS011;44730;53.158;6.398;2022-08-21T06:46:20;7.88;;;4.10;;
58950;SDS011;44730;53.158;6.398;2022-08-21T06:48:47;7.78;;;4.32;;
58950;SDS011;44730;53.158;6.398;2022-08-21T06:51:13;6.82;;;4.28;;
58950;SDS011;44730;53.158;6.398;2022-08-21T06:53:38;6.95;;;3.70;;
58950;SDS011;44730;53.158;6.398;2022-08-21T06:56:04;6.00;;;3.80;;
58950;SDS011;44730;53.158;6.398;2022-08-21T06:58:30;9.52;;;3.97;;
58950;SDS011;44730;53.158;6.398;2022-08-21T07:00:56;5.07;;;3.60;;
58950;SDS011;44730;53.158;6.398;2022-08-21T07:03:41;5.10;;;3.30;;
58950;SDS011;44730;53.158;6.398;2022-08-21T07:06:08;8.32;;;3.78;;
58950;SDS011;44730;53.158;6.398;2022-08-21T07:08:35;10.27;;;3.63;;
58950;SDS011;44730;53.158;6.398;2022-08-21T07:11:03;7.80;;;3.90;;
58950;SDS011;44730;53.158;6.398;2022-08-21T07:13:34;7.63;;;3.53;;
58950;SDS011;44730;53.158;6.398;2022-08-21T07:16:00;5.97;;;3.55;;
58950;SDS011;44730;53.158;6.398;2022-08-21T07:18:26;7.50;;;3.15;;
58950;SDS011;44730;53.158;6.398;2022-08-21T07:20:52;7.00;;;2.90;;
58950;SDS011;44730;53.158;6.398;2022-08-21T07:23:25;5.90;;;2.88;;
58950;SDS011;44730;53.158;6.398;2022-08-21T07:25:55;4.28;;;2.80;;
58950;SDS011;44730;53.158;6.398;2022-08-21T07:28:21;5.43;;;2.65;;
58950;SDS011;44730;53.158;6.398;2022-08-21T07:30:49;7.40;;;3.20;;
58950;SDS011;44730;53.158;6.398;2022-08-21T07:33:17;6.13;;;2.72;;
58950;SDS011;44730;53.158;6.398;2022-08-21T07:35:43;5.30;;;2.60;;
58950;SDS011;44730;53.158;6.398;2022-08-21T07:38:08;4.93;;;2.47;;
58950;SDS011;44730;53.158;6.398;2022-08-21T07:40:34;9.27;;;2.80;;
58950;SDS011;44730;53.158;6.398;2022-08-21T07:43:00;6.90;;;2.90;;
58950;SDS011;44730;53.158;6.398;2022-08-21T07:45:27;6.15;;;2.80;;
58950;SDS011;44730;53.158;6.398;2022-08-21T07:47:53;6.65;;;2.60;;
58950;SDS011;44730;53.158;6.398;2022-08-21T07:50:19;4.43;;;2.72;;
58950;SDS011;44730;53.158;6.398;2022-08-21T07:52:45;9.07;;;3.25;;
58950;SDS011;44730;53.158;6.398;2022-08-21T07:55:14;5.10;;;2.78;;
58950;SDS011;44730;53.158;6.398;2022-08-21T07:57:41;8.98;;;3.20;;
58950;SDS011;44730;53.158;6.398;2022-08-21T08:00:08;7.43;;;3.05;;
58950;SDS011;44730;53.158;6.398;2022-08-21T08:02:36;7.05;;;2.80;;
58950;SDS011;44730;53.158;6.398;2022-08-21T08:05:03;5.05;;;2.85;;
58950;SDS011;44730;53.158;6.398;2022-08-21T08:07:31;7.38;;;2.90;;
58950;SDS011;44730;53.158;6.398;2022-08-21T08:09:57;6.85;;;3.13;;
58950;SDS011;44730;53.158;6.398;2022-08-21T08:12:23;7.25;;;2.75;;
58950;SDS011;44730;53.158;6.398;2022-08-21T08:14:55;5.55;;;2.92;;
58950;SDS011;44730;53.158;6.398;2022-08-21T08:17:25;6.25;;;3.08;;
58950;SDS011;44730;53.158;6.398;2022-08-21T08:19:52;5.18;;;2.75;;
58950;SDS011;44730;53.158;6.398;2022-08-21T08:22:21;6.90;;;2.85;;
58950;SDS011;44730;53.158;6.398;2022-08-21T08:24:51;6.57;;;2.97;;
58950;SDS011;44730;53.158;6.398;2022-08-21T08:27:17;4.78;;;2.72;;
58950;SDS011;44730;53.158;6.398;2022-08-21T08:29:44;5.32;;;2.85;;
58950;SDS011;44730;53.158;6.398;2022-08-21T08:32:10;6.68;;;3.00;;
58950;SDS011;44730;53.158;6.398;2022-08-21T08:34:37;5.65;;;3.10;;
58950;SDS011;44730;53.158;6.398;2022-08-21T08:37:04;9.57;;;2.80;;
58950;SDS011;44730;53.158;6.398;2022-08-21T08:39:31;8.45;;;3.13;;
58950;SDS011;44730;53.158;6.398;2022-08-21T08:42:08;6.50;;;3.17;;
58950;SDS011;44730;53.158;6.398;2022-08-21T08:44:38;6.43;;;2.72;;
58950;SDS011;44730;53.158;6.398;2022-08-21T08:47:13;5.47;;;2.60;;
58950;SDS011;44730;53.158;6.398;2022-08-21T08:52:32;9.85;;;3.50;;
58950;SDS011;44730;53.158;6.398;2022-08-21T08:55:12;7.53;;;2.83;;
58950;SDS011;44730;53.158;6.398;2022-08-21T08:57:44;5.68;;;3.00;;
58950;SDS011;44730;53.158;6.398;2022-08-21T09:00:12;7.63;;;2.83;;
58950;SDS011;44730;53.158;6.398;2022-08-21T09:02:40;5.93;;;2.80;;
58950;SDS011;44730;53.158;6.398;2022-08-21T09:05:08;4.40;;;2.80;;
58950;SDS011;44730;53.158;6.398;2022-08-21T09:10:22;9.50;;;2.72;;
58950;SDS011;44730;53.158;6.398;2022-08-21T09:12:56;7.97;;;3.00;;
58950;SDS011;44730;53.158;6.398;2022-08-21T09:15:36;8.70;;;3.13;;
58950;SDS011;44730;53.158;6.398;2022-08-21T09:26:43;4.85;;;2.63;;
58950;SDS011;44730;53.158;6.398;2022-08-21T09:29:20;4.20;;;2.60;;
58950;SDS011;44730;53.158;6.398;2022-08-21T09:31:50;4.63;;;3.05;;
58950;SDS011;44730;53.158;6.398;2022-08-21T09:34:23;5.65;;;3.10;;
58950;SDS011;44730;53.158;6.398;2022-08-21T09:36:53;7.30;;;3.10;;
58950;SDS011;44730;53.158;6.398;2022-08-21T09:39:25;3.35;;;2.80;;
58950;SDS011;44730;53.158;6.398;2022-08-21T09:41:57;6.90;;;2.90;;
58950;SDS011;44730;53.158;6.398;2022-08-21T09:44:26;6.50;;;2.53;;
58950;SDS011;44730;53.158;6.398;2022-08-21T09:46:53;6.00;;;3.03;;
58950;SDS011;44730;53.158;6.398;2022-08-21T09:49:33;5.35;;;2.60;;
58950;SDS011;44730;53.158;6.398;2022-08-21T09:52:00;5.22;;;3.10;;
58950;SDS011;44730;53.158;6.398;2022-08-21T09:54:32;6.47;;;2.83;;
58950;SDS011;44730;53.158;6.398;2022-08-21T09:59:52;5.15;;;2.70;;
58950;SDS011;44730;53.158;6.398;2022-08-21T10:02:23;4.05;;;2.83;;
58950;SDS011;44730;53.158;6.398;2022-08-21T10:07:29;6.47;;;3.22;;
58950;SDS011;44730;53.158;6.398;2022-08-21T10:09:58;5.35;;;2.67;;
58950;SDS011;44730;53.158;6.398;2022-08-21T10:20:50;5.93;;;3.15;;
58950;SDS011;44730;53.158;6.398;2022-08-21T10:23:42;6.13;;;3.10;;
58950;SDS011;44730;53.158;6.398;2022-08-21T10:35:24;6.63;;;2.70;;
58950;SDS011;44730;53.158;6.398;2022-08-21T10:46:50;6.10;;;3.00;;
58950;SDS011;44730;53.158;6.398;2022-08-21T10:49:48;6.95;;;2.90;;
58950;SDS011;44730;53.158;6.398;2022-08-21T10:52:46;6.13;;;2.70;;
58950;SDS011;44730;53.158;6.398;2022-08-21T10:56:13;6.82;;;3.38;;
58950;SDS011;44730;53.158;6.398;2022-08-21T10:58:59;4.57;;;2.90;;
58950;SDS011;44730;53.158;6.398;2022-08-21T11:01:31;5.70;;;2.83;;
58950;SDS011;44730;53.158;6.398;2022-08-21T11:04:16;4.88;;;2.80;;
58950;SDS011;44730;53.158;6.398;2022-08-21T11:06:49;7.93;;;2.92;;
58950;SDS011;44730;53.158;6.398;2022-08-21T11:09:24;5.28;;;2.70;;
58950;SDS011;44730;53.158;6.398;2022-08-21T11:11:56;4.18;;;3.10;;
58950;SDS011;44730;53.158;6.398;2022-08-21T11:14:31;6.07;;;2.95;;
58950;SDS011;44730;53.158;6.398;2022-08-21T11:17:10;4.13;;;2.60;;
58950;SDS011;44730;53.158;6.398;2022-08-21T11:23:02;7.53;;;3.30;;
58950;SDS011;44730;53.158;6.398;2022-08-21T11:25:35;6.05;;;2.80;;
58950;SDS011;44730;53.158;6.398;2022-08-21T11:33:50;5.55;;;2.90;;
58950;SDS011;44730;53.158;6.398;2022-08-21T11:36:24;8.90;;;3.03;;
58950;SDS011;44730;53.158;6.398;2022-08-21T11:50:27;5.00;;;2.80;;
58950;SDS011;44730;53.158;6.398;2022-08-21T11:53:01;5.50;;;2.95;;
58950;SDS011;44730;53.158;6.398;2022-08-21T11:55:34;4.70;;;2.72;;
58950;SDS011;44730;53.158;6.398;2022-08-21T12:01:08;6.70;;;2.53;;
58950;SDS011;44730;53.158;6.398;2022-08-21T12:03:38;4.80;;;2.97;;
58950;SDS011;44730;53.158;6.398;2022-08-21T12:06:12;4.47;;;2.60;;
58950;SDS011;44730;53.158;6.398;2022-08-21T12:08:43;6.53;;;3.20;;
58950;SDS011;44730;53.158;6.398;2022-08-21T12:13:56;6.05;;;2.97;;
58950;SDS011;44730;53.158;6.398;2022-08-21T12:19:09;4.57;;;2.42;;
58950;SDS011;44730;53.158;6.398;2022-08-21T12:21:52;6.07;;;2.72;;
58950;SDS011;44730;53.158;6.398;2022-08-21T12:31:55;3.60;;;1.90;;
58950;SDS011;44730;53.158;6.398;2022-08-21T12:37:40;6.40;;;2.63;;
58950;SDS011;44730;53.158;6.398;2022-08-21T12:40:23;4.13;;;2.22;;
58950;SDS011;44730;53.158;6.398;2022-08-21T12:43:31;3.75;;;2.00;;
58950;SDS011;44730;53.158;6.398;2022-08-21T12:45:58;5.63;;;2.08;;
58950;SDS011;44730;53.158;6.398;2022-08-21T12:48:42;3.33;;;2.10;;
58950;SDS011;44730;53.158;6.398;2022-08-21T12:51:10;6.43;;;2.00;;
58950;SDS011;44730;53.158;6.398;2022-08-21T12:53:44;4.63;;;1.85;;
58950;SDS011;44730;53.158;6.398;2022-08-21T12:56:17;4.35;;;2.00;;
58950;SDS011;44730;53.158;6.398;2022-08-21T12:58:46;3.55;;;1.92;;
58950;SDS011;44730;53.158;6.398;2022-08-21T13:01:19;3.55;;;2.15;;
58950;SDS011;44730;53.158;6.398;2022-08-21T13:03:57;4.22;;;2.00;;
58950;SDS011;44730;53.158;6.398;2022-08-21T13:06:24;4.45;;;2.25;;
58950;SDS011;44730;53.158;6.398;2022-08-21T13:08:56;4.68;;;2.53;;
58950;SDS011;44730;53.158;6.398;2022-08-21T13:11:24;5.03;;;2.08;;
58950;SDS011;44730;53.158;6.398;2022-08-21T13:13:53;3.55;;;2.13;;
58950;SDS011;44730;53.158;6.398;2022-08-21T13:16:20;4.40;;;1.95;;
58950;SDS011;44730;53.158;6.398;2022-08-21T13:18:52;3.70;;;2.05;;
58950;SDS011;44730;53.158;6.398;2022-08-21T13:21:26;3.55;;;2.25;;
58950;SDS011;44730;53.158;6.398;2022-08-21T13:23:54;4.07;;;2.17;;
58950;SDS011;44730;53.158;6.398;2022-08-21T13:26:20;4.05;;;1.92;;
58950;SDS011;44730;53.158;6.398;2022-08-21T13:28:47;3.17;;;1.80;;
58950;SDS011;44730;53.158;6.398;2022-08-21T13:31:20;3.15;;;1.92;;
58950;SDS011;44730;53.158;6.398;2022-08-21T13:33:54;3.85;;;2.03;;
58950;SDS011;44730;53.158;6.398;2022-08-21T13:36:24;7.35;;;2.47;;
58950;SDS011;44730;53.158;6.398;2022-08-21T13:38:54;5.32;;;2.20;;
58950;SDS011;44730;53.158;6.398;2022-08-21T13:41:21;3.20;;;1.80;;
58950;SDS011;44730;53.158;6.398;2022-08-21T13:43:56;5.95;;;2.33;;
58950;SDS011;44730;53.158;6.398;2022-08-21T13:46:28;8.13;;;2.10;;
58950;SDS011;44730;53.158;6.398;2022-08-21T13:48:56;3.95;;;2.30;;
58950;SDS011;44730;53.158;6.398;2022-08-21T13:51:25;3.47;;;2.00;;
58950;SDS011;44730;53.158;6.398;2022-08-21T13:53:51;3.55;;;2.00;;
58950;SDS011;44730;53.158;6.398;2022-08-21T13:56:26;3.08;;;1.80;;
58950;SDS011;44730;53.158;6.398;2022-08-21T13:58:57;4.63;;;2.15;;
58950;SDS011;44730;53.158;6.398;2022-08-21T14:01:30;3.13;;;1.98;;
58950;SDS011;44730;53.158;6.398;2022-08-21T14:05:06;5.45;;;1.98;;
58950;SDS011;44730;53.158;6.398;2022-08-21T14:07:34;2.60;;;2.00;;
58950;SDS011;44730;53.158;6.398;2022-08-21T14:10:06;3.90;;;2.38;;
58950;SDS011;44730;53.158;6.398;2022-08-21T14:12:41;4.75;;;2.58;;
58950;SDS011;44730;53.158;6.398;2022-08-21T14:15:13;5.38;;;2.50;;
58950;SDS011;44730;53.158;6.398;2022-08-21T14:17:40;5.72;;;2.33;;
58950;SDS011;44730;53.158;6.398;2022-08-21T14:20:09;4.63;;;2.28;;
58950;SDS011;44730;53.158;6.398;2022-08-21T14:25:27;3.72;;;2.20;;
58950;SDS011;44730;53.158;6.398;2022-08-21T14:32:55;4.55;;;2.00;;
58950;SDS011;44730;53.158;6.398;2022-08-21T14:35:21;4.18;;;2.28;;
58950;SDS011;44730;53.158;6.398;2022-08-21T14:37:47;3.33;;;2.10;;
58950;SDS011;44730;53.158;6.398;2022-08-21T14:40:15;5.65;;;2.38;;
58950;SDS011;44730;53.158;6.398;2022-08-21T14:42:42;2.78;;;1.85;;
58950;SDS011;44730;53.158;6.398;2022-08-21T14:45:28;6.00;;;2.13;;
58950;SDS011;44730;53.158;6.398;2022-08-21T14:47:55;4.32;;;1.90;;
58950;SDS011;44730;53.158;6.398;2022-08-21T14:50:22;2.95;;;1.77;;
58950;SDS011;44730;53.158;6.398;2022-08-21T14:52:48;3.88;;;2.00;;
58950;SDS011;44730;53.158;6.398;2022-08-21T14:55:15;3.90;;;2.05;;
58950;SDS011;44730;53.158;6.398;2022-08-21T14:57:43;4.30;;;1.95;;
58950;SDS011;44730;53.158;6.398;2022-08-21T15:00:12;4.10;;;2.15;;
58950;SDS011;44730;53.158;6.398;2022-08-21T15:02:42;5.35;;;2.10;;
58950;SDS011;44730;53.158;6.398;2022-08-21T15:05:08;2.72;;;1.80;;
58950;SDS011;44730;53.158;6.398;2022-08-21T15:07:34;3.80;;;2.13;;
58950;SDS011;44730;53.158;6.398;2022-08-21T15:10:00;3.15;;;1.95;;
58950;SDS011;44730;53.158;6.398;2022-08-21T15:12:26;5.55;;;2.33;;
58950;SDS011;44730;53.158;6.398;2022-08-21T15:14:52;3.35;;;1.80;;
58950;SDS011;44730;53.158;6.398;2022-08-21T15:17:24;2.88;;;2.17;;
58950;SDS011;44730;53.158;6.398;2022-08-21T15:19:50;4.13;;;2.10;;
58950;SDS011;44730;53.158;6.398;2022-08-21T15:22:17;3.13;;;1.73;;
58950;SDS011;44730;53.158;6.398;2022-08-21T15:24:43;4.47;;;1.83;;
58950;SDS011;44730;53.158;6.398;2022-08-21T15:27:09;3.17;;;1.90;;
58950;SDS011;44730;53.158;6.398;2022-08-21T15:29:37;3.90;;;2.40;;
58950;SDS011;44730;53.158;6.398;2022-08-21T15:32:15;3.50;;;1.88;;
58950;SDS011;44730;53.158;6.398;2022-08-21T15:34:47;4.32;;;2.10;;
58950;SDS011;44730;53.158;6.398;2022-08-21T15:37:13;3.53;;;1.83;;
58950;SDS011;44730;53.158;6.398;2022-08-21T15:39:39;3.83;;;2.00;;
58950;SDS011;44730;53.158;6.398;2022-08-21T15:42:05;5.47;;;2.05;;
58950;SDS011;44730;53.158;6.398;2022-08-21T15:44:31;5.18;;;1.90;;
58950;SDS011;44730;53.158;6.398;2022-08-21T15:46:58;3.42;;;2.00;;
58950;SDS011;44730;53.158;6.398;2022-08-21T15:49:24;3.95;;;1.88;;
58950;SDS011;44730;53.158;6.398;2022-08-21T15:51:50;4.68;;;1.98;;
58950;SDS011;44730;53.158;6.398;2022-08-21T15:54:15;3.78;;;1.77;;
58950;SDS011;44730;53.158;6.398;2022-08-21T15:56:42;4.10;;;2.05;;
58950;SDS011;44730;53.158;6.398;2022-08-21T15:59:15;3.58;;;1.45;;
58950;SDS011;44730;53.158;6.398;2022-08-21T16:01:47;4.63;;;2.28;;
58950;SDS011;44730;53.158;6.398;2022-08-21T16:04:24;3.13;;;1.92;;
58950;SDS011;44730;53.158;6.398;2022-08-21T16:06:51;6.18;;;2.13;;
58950;SDS011;44730;53.158;6.398;2022-08-21T16:09:18;4.05;;;1.92;;
58950;SDS011;44730;53.158;6.398;2022-08-21T16:11:44;5.72;;;2.50;;
58950;SDS011;44730;53.158;6.398;2022-08-21T16:14:11;3.92;;;2.10;;
58950;SDS011;44730;53.158;6.398;2022-08-21T16:16:38;4.93;;;2.28;;
58950;SDS011;44730;53.158;6.398;2022-08-21T16:19:04;4.35;;;1.98;;
58950;SDS011;44730;53.158;6.398;2022-08-21T16:21:31;4.60;;;2.10;;
58950;SDS011;44730;53.158;6.398;2022-08-21T16:23:57;4.50;;;2.05;;
58950;SDS011;44730;53.158;6.398;2022-08-21T16:26:23;4.25;;;2.00;;
58950;SDS011;44730;53.158;6.398;2022-08-21T16:28:49;5.13;;;1.90;;
58950;SDS011;44730;53.158;6.398;2022-08-21T16:31:19;3.70;;;1.85;;
58950;SDS011;44730;53.158;6.398;2022-08-21T16:33:48;7.32;;;2.25;;